Time;durP1;ratioP1;P1;durP2;ratioP2;P2;SDS_P1;SDS_P2;PMS_P1;PMS_P2;Temp;Humidity;BMP_temperature;BMP_pressure;BME280_temperature;BME280_humidity;BME280_pressure;Samples;Min_cycle;Max_cycle;Signal;HPM_P1;HPM_P2
2023/05/11 00:00:12;;;;;;;2.90;2.70;;;12.00;99.90;;;;;;5013006;28;20424;-73
2023/05/11 00:02:39;;;;;;;2.90;2.60;;;11.90;99.90;;;;;;5013517;28;20514;-71
2023/05/11 00:05:06;;;;;;;1.77;1.65;;;11.80;99.90;;;;;;5017916;28;20461;-71
2023/05/11 00:07:33;;;;;;;2.50;1.98;;;11.60;99.90;;;;;;5013675;28;20443;-74
2023/05/11 00:10:00;;;;;;;2.15;1.90;;;11.50;99.90;;;;;;5012719;28;21045;-73
2023/05/11 00:12:28;;;;;;;1.80;1.70;;;11.50;99.90;;;;;;5022324;28;20521;-73
2023/05/11 00:14:55;;;;;;;1.50;1.40;;;11.40;99.90;;;;;;5013464;28;20440;-73
2023/05/11 00:17:21;;;;;;;2.40;1.60;;;11.30;99.90;;;;;;5021081;28;20778;-73
2023/05/11 00:19:48;;;;;;;2.80;1.50;;;11.30;99.90;;;;;;5025546;28;20450;-73
2023/05/11 00:22:15;;;;;;;2.03;1.80;;;11.20;99.90;;;;;;5016863;28;20438;-73
2023/05/11 00:24:42;;;;;;;3.10;2.17;;;11.20;99.90;;;;;;5019246;28;20951;-73
2023/05/11 00:27:09;;;;;;;2.50;2.00;;;11.20;99.90;;;;;;5027303;28;20513;-73
2023/05/11 00:29:37;;;;;;;2.80;2.20;;;11.20;99.90;;;;;;5023713;28;20454;-73
2023/05/11 00:32:03;;;;;;;4.18;2.85;;;11.20;99.90;;;;;;5025154;28;20539;-72
2023/05/11 00:34:30;;;;;;;3.25;2.70;;;11.10;99.90;;;;;;5032397;28;20439;-72
2023/05/11 00:36:57;;;;;;;4.53;3.38;;;11.10;99.90;;;;;;5025146;28;20450;-72
2023/05/11 00:39:24;;;;;;;3.30;3.00;;;11.10;99.90;;;;;;5025399;28;20874;-72
2023/05/11 00:41:51;;;;;;;4.35;4.00;;;11.10;99.90;;;;;;5025226;28;20439;-73
2023/05/11 00:44:18;;;;;;;4.00;3.60;;;11.00;99.90;;;;;;5021565;28;20432;-72
2023/05/11 00:46:46;;;;;;;3.80;3.50;;;11.00;99.90;;;;;;5019560;28;20443;-72
2023/05/11 00:49:16;;;;;;;3.58;3.20;;;11.00;99.90;;;;;;5024774;28;20968;-72
2023/05/11 00:51:43;;;;;;;4.30;3.60;;;11.00;99.90;;;;;;5020916;28;20437;-72
2023/05/11 00:54:14;;;;;;;4.15;3.75;;;11.10;99.90;;;;;;5023942;28;20469;-72
2023/05/11 00:56:41;;;;;;;6.15;4.00;;;11.10;99.90;;;;;;5033943;28;20483;-72
2023/05/11 00:59:07;;;;;;;4.85;3.85;;;11.10;99.90;;;;;;5027534;28;20885;-73
2023/05/11 01:01:34;;;;;;;3.93;3.63;;;11.20;99.90;;;;;;5013755;28;20436;-72
2023/05/11 01:04:03;;;;;;;5.00;4.50;;;11.20;99.90;;;;;;5021861;28;20451;-73
2023/05/11 01:06:41;;;;;;;4.10;3.80;;;11.30;99.90;;;;;;5020263;28;20797;-72
2023/05/11 01:09:14;;;;;;;4.78;3.80;;;11.40;99.90;;;;;;5019773;28;20471;-72
2023/05/11 01:11:47;;;;;;;3.75;3.45;;;11.40;99.90;;;;;;5015728;28;20541;-73
2023/05/11 01:14:20;;;;;;;3.50;3.13;;;11.40;99.90;;;;;;5019876;28;20447;-72
2023/05/11 01:16:51;;;;;;;3.55;3.25;;;11.50;99.90;;;;;;5018042;28;20523;-72
2023/05/11 01:19:29;;;;;;;3.10;2.80;;;11.50;99.90;;;;;;5028132;28;20875;-72
2023/05/11 01:21:56;;;;;;;3.40;3.10;;;11.60;99.90;;;;;;5006019;28;20429;-72
2023/05/11 01:24:40;;;;;;;3.47;3.00;;;11.60;99.90;;;;;;5017296;28;20438;-72
2023/05/11 01:27:23;;;;;;;3.40;3.10;;;11.60;99.90;;;;;;5019012;28;20510;-72
2023/05/11 01:30:05;;;;;;;4.13;3.40;;;11.60;99.90;;;;;;5018846;28;20536;-73
2023/05/11 01:32:36;;;;;;;3.70;3.40;;;11.70;99.90;;;;;;5014995;28;20479;-72
2023/05/11 01:35:07;;;;;;;4.60;4.20;;;11.70;99.90;;;;;;5020986;28;20422;-72
2023/05/11 01:37:35;;;;;;;5.93;5.20;;;11.80;99.90;;;;;;5024778;28;20452;-72
2023/05/11 01:40:05;;;;;;;5.57;5.07;;;11.70;99.90;;;;;;5023038;28;20435;-73
2023/05/11 01:42:38;;;;;;;6.03;5.43;;;11.70;99.90;;;;;;5018881;28;20510;-72
2023/05/11 01:45:07;;;;;;;5.80;5.30;;;11.70;99.90;;;;;;5023496;28;20441;-72
2023/05/11 01:47:38;;;;;;;6.20;5.60;;;11.70;99.90;;;;;;5023481;28;20435;-72
2023/05/11 01:50:07;;;;;;;6.65;5.95;;;11.70;99.90;;;;;;5016391;28;20757;-72
2023/05/11 01:52:37;;;;;;;6.78;6.10;;;11.70;99.90;;;;;;5052947;22;20456;-70
2023/05/11 01:55:05;;;;;;;6.70;6.00;;;11.70;99.90;;;;;;5043551;28;20444;-69
2023/05/11 01:57:33;;;;;;;7.00;6.28;;;11.80;99.90;;;;;;5043538;28;20417;-70
2023/05/11 02:00:01;;;;;;;6.63;6.03;;;11.80;99.90;;;;;;5059397;28;20429;-69
2023/05/11 02:02:29;;;;;;;7.65;6.95;;;11.80;99.90;;;;;;5047733;28;20524;-69
2023/05/11 02:04:59;;;;;;;7.78;7.07;;;11.80;99.90;;;;;;5058445;28;20443;-69
2023/05/11 02:07:29;;;;;;;7.88;7.07;;;11.80;99.90;;;;;;5061317;28;20426;-69
2023/05/11 02:09:56;;;;;;;8.15;7.00;;;11.80;99.90;;;;;;5056287;28;20475;-70
2023/05/11 02:12:25;;;;;;;7.70;6.90;;;11.80;99.90;;;;;;5056201;28;20456;-69
2023/05/11 02:14:53;;;;;;;8.18;7.30;;;11.80;99.90;;;;;;5046798;28;20943;-69
2023/05/11 02:17:22;;;;;;;8.30;7.50;;;11.80;99.90;;;;;;5058725;28;20437;-69
2023/05/11 02:19:50;;;;;;;8.75;7.65;;;11.70;99.90;;;;;;5055760;28;20609;-69
2023/05/11 02:22:19;;;;;;;9.43;8.52;;;11.60;99.90;;;;;;5051566;28;20902;-70
2023/05/11 02:24:47;;;;;;;10.27;9.05;;;11.60;99.90;;;;;;5055297;28;20431;-69
2023/05/11 02:27:13;;;;;;;10.25;9.25;;;11.50;99.90;;;;;;5062043;28;20901;-69
2023/05/11 02:29:40;;;;;;;9.55;8.55;;;11.50;99.90;;;;;;5063559;28;20432;-69
2023/05/11 02:32:12;;;;;;;10.00;9.00;;;11.50;99.90;;;;;;5072940;28;20506;-70
2023/05/11 02:34:42;;;;;;;8.68;7.43;;;11.60;99.90;;;;;;5066342;28;20423;-69
2023/05/11 02:37:12;;;;;;;8.10;7.30;;;11.60;99.90;;;;;;5058072;28;20425;-69
2023/05/11 02:39:44;;;;;;;7.82;7.03;;;11.70;99.90;;;;;;5048566;28;20808;-69
2023/05/11 02:42:15;;;;;;;8.30;6.93;;;11.60;99.90;;;;;;5046063;28;20421;-69
2023/05/11 02:44:50;;;;;;;7.75;7.05;;;11.60;99.90;;;;;;5049851;28;20434;-70
2023/05/11 02:47:19;;;;;;;7.90;7.20;;;11.60;99.90;;;;;;5052317;28;20473;-69
2023/05/11 02:49:52;;;;;;;8.20;7.40;;;11.60;99.90;;;;;;5052738;28;20417;-69
2023/05/11 02:52:21;;;;;;;8.00;7.10;;;11.60;99.90;;;;;;5043999;28;20435;-70
2023/05/11 02:54:51;;;;;;;8.32;7.53;;;11.60;99.90;;;;;;5065692;28;20432;-69
2023/05/11 02:57:18;;;;;;;8.30;6.65;;;11.60;99.90;;;;;;5079406;28;20418;-69
2023/05/11 02:59:45;;;;;;;8.32;7.53;;;11.60;99.90;;;;;;5063543;28;20431;-69
2023/05/11 03:02:12;;;;;;;8.18;7.35;;;11.60;99.90;;;;;;5053825;28;20437;-69
2023/05/11 03:04:39;;;;;;;8.60;7.60;;;11.60;99.90;;;;;;5069354;28;20869;-69
2023/05/11 03:07:06;;;;;;;8.30;7.50;;;11.60;99.90;;;;;;5057797;28;20501;-69
2023/05/11 03:09:34;;;;;;;8.95;8.05;;;11.60;99.90;;;;;;5050433;28;20433;-70
2023/05/11 03:12:03;;;;;;;9.02;8.23;;;11.50;99.90;;;;;;5048370;28;20425;-69
2023/05/11 03:14:32;;;;;;;8.32;7.53;;;11.50;99.90;;;;;;5052718;28;20430;-69
2023/05/11 03:17:00;;;;;;;10.35;9.43;;;11.50;99.90;;;;;;5044837;28;20440;-69
2023/05/11 03:19:28;;;;;;;10.00;9.10;;;11.50;99.90;;;;;;5054809;28;20413;-69
2023/05/11 03:21:57;;;;;;;11.13;10.02;;;11.40;99.90;;;;;;5064690;28;20423;-68
2023/05/11 03:24:25;;;;;;;13.25;11.95;;;11.40;99.90;;;;;;5045723;28;21008;-68
2023/05/11 03:26:53;;;;;;;12.00;10.70;;;11.30;99.90;;;;;;5046941;28;20425;-69
2023/05/11 03:29:22;;;;;;;12.63;11.32;;;11.30;99.90;;;;;;5045508;28;20433;-69
2023/05/11 03:31:49;;;;;;;13.32;11.93;;;11.30;99.90;;;;;;5048518;28;20440;-69
2023/05/11 03:34:16;;;;;;;12.75;11.45;;;11.30;99.90;;;;;;5061859;28;20581;-69
2023/05/11 03:36:44;;;;;;;12.65;11.45;;;11.30;99.90;;;;;;5047933;28;20907;-69
2023/05/11 03:39:12;;;;;;;14.70;13.20;;;11.40;99.90;;;;;;5049732;28;20429;-69
2023/05/11 03:41:39;;;;;;;13.65;12.35;;;11.40;99.90;;;;;;5056151;28;20412;-70
2023/05/11 03:44:10;;;;;;;14.70;13.10;;;11.30;99.90;;;;;;5054730;28;20514;-69
2023/05/11 03:46:41;;;;;;;14.35;12.95;;;11.30;99.90;;;;;;5044831;28;20719;-68
2023/05/11 03:49:08;;;;;;;14.38;12.88;;;11.20;99.90;;;;;;5057826;28;20418;-69
2023/05/11 03:51:35;;;;;;;16.42;14.82;;;11.20;99.90;;;;;;5048380;28;20413;-69
2023/05/11 03:54:03;;;;;;;15.25;13.75;;;11.20;99.90;;;;;;5062384;28;20440;-69
2023/05/11 03:56:29;;;;;;;15.77;14.18;;;11.20;99.90;;;;;;5050389;28;20433;-69
2023/05/11 03:58:56;;;;;;;15.57;13.77;;;11.20;99.90;;;;;;5053767;28;20440;-69
2023/05/11 04:01:23;;;;;;;16.48;14.68;;;11.20;99.90;;;;;;5044156;28;20446;-69
2023/05/11 04:03:53;;;;;;;15.95;14.35;;;11.30;99.90;;;;;;5058690;28;20414;-71
2023/05/11 04:06:20;;;;;;;16.10;14.40;;;11.30;99.90;;;;;;5055190;28;20427;-69
2023/05/11 04:08:47;;;;;;;17.50;14.50;;;11.40;99.90;;;;;;5065226;28;20489;-69
2023/05/11 04:11:13;;;;;;;15.43;13.85;;;11.50;99.90;;;;;;5056788;28;21941;-69
2023/05/11 04:13:40;;;;;;;14.25;12.75;;;11.50;99.90;;;;;;5050140;28;20432;-69
2023/05/11 04:16:07;;;;;;;15.80;14.30;;;11.60;99.90;;;;;;5062058;28;20456;-68
2023/05/11 04:18:34;;;;;;;15.43;13.82;;;11.60;99.90;;;;;;5070236;28;20415;-69
2023/05/11 04:21:02;;;;;;;16.30;14.60;;;11.70;99.90;;;;;;5056122;28;20417;-70
2023/05/11 04:23:29;;;;;;;15.52;14.02;;;11.70;99.90;;;;;;5060438;28;20420;-69
2023/05/11 04:25:56;;;;;;;14.82;13.43;;;11.70;99.90;;;;;;5053788;28;20818;-69
2023/05/11 04:28:26;;;;;;;14.88;13.38;;;11.70;99.90;;;;;;5063337;28;20441;-70
2023/05/11 04:30:54;;;;;;;13.68;12.27;;;11.80;99.90;;;;;;5052239;28;20441;-68
2023/05/11 04:33:21;;;;;;;13.55;12.25;;;11.80;99.90;;;;;;5052328;28;20421;-69
2023/05/11 04:35:49;;;;;;;13.00;11.80;;;11.80;99.90;;;;;;5066638;28;20416;-69
2023/05/11 04:38:18;;;;;;;13.10;11.80;;;11.80;99.90;;;;;;5051616;28;20409;-69
2023/05/11 04:40:45;;;;;;;12.65;11.45;;;11.80;99.90;;;;;;5055208;28;20436;-69
2023/05/11 04:43:12;;;;;;;11.63;10.52;;;11.80;99.90;;;;;;5055594;28;20421;-70
2023/05/11 04:45:39;;;;;;;11.95;10.85;;;11.80;99.90;;;;;;5069733;28;20444;-70
2023/05/11 04:48:06;;;;;;;12.25;11.05;;;11.80;99.90;;;;;;5066301;28;20429;-70
2023/05/11 04:50:33;;;;;;;14.45;12.73;;;11.90;99.90;;;;;;5075819;28;20474;-69
2023/05/11 04:52:59;;;;;;;13.73;12.32;;;12.00;99.90;;;;;;5063946;28;20435;-69
2023/05/11 04:55:27;;;;;;;12.40;11.20;;;12.00;99.90;;;;;;5049629;28;20425;-69
2023/05/11 04:57:54;;;;;;;13.20;11.80;;;12.00;99.90;;;;;;5065314;28;20411;-69
2023/05/11 05:00:21;;;;;;;13.23;11.93;;;12.10;99.90;;;;;;5049645;28;20521;-70
2023/05/11 05:02:49;;;;;;;13.40;12.00;;;12.00;99.90;;;;;;5050068;28;20433;-70
2023/05/11 05:05:16;;;;;;;12.75;11.50;;;12.00;99.90;;;;;;5038598;28;20433;-72
2023/05/11 05:07:43;;;;;;;14.30;12.90;;;12.00;99.90;;;;;;5043568;28;20440;-71
2023/05/11 05:10:11;;;;;;;13.90;12.60;;;12.00;99.90;;;;;;5046770;28;20434;-68
2023/05/11 05:12:39;;;;;;;14.55;13.15;;;12.00;99.90;;;;;;5045624;28;20442;-70
2023/05/11 05:15:07;;;;;;;16.48;13.73;;;12.00;99.90;;;;;;5046470;28;20426;-70
2023/05/11 05:17:34;;;;;;;14.48;12.98;;;11.90;99.90;;;;;;5047265;28;20927;-69
2023/05/11 05:20:01;;;;;;;15.73;14.23;;;11.90;99.90;;;;;;5047468;28;20534;-70
2023/05/11 05:22:28;;;;;;;16.55;13.80;;;11.90;99.90;;;;;;5044300;28;20440;-71
2023/05/11 05:24:54;;;;;;;17.20;14.80;;;11.90;99.90;;;;;;5049792;28;20506;-68
2023/05/11 05:27:21;;;;;;;15.53;13.80;;;11.90;99.90;;;;;;5049706;28;20438;-69
2023/05/11 05:29:49;;;;;;;16.90;15.10;;;12.00;99.90;;;;;;5057244;28;20417;-69
2023/05/11 05:32:16;;;;;;;17.58;14.77;;;12.00;99.90;;;;;;5050355;28;20425;-69
2023/05/11 05:34:45;;;;;;;15.60;14.10;;;12.00;99.90;;;;;;5048301;28;20429;-68
2023/05/11 05:37:12;;;;;;;16.55;13.98;;;12.00;99.90;;;;;;5042757;28;21173;-68
2023/05/11 05:39:39;;;;;;;17.02;15.32;;;11.90;99.90;;;;;;5043358;28;20900;-69
2023/05/11 05:42:06;;;;;;;17.50;15.70;;;12.00;99.90;;;;;;5052557;28;20914;-69
2023/05/11 05:44:32;;;;;;;16.80;15.20;;;12.00;99.90;;;;;;5055926;28;20432;-69
2023/05/11 05:47:00;;;;;;;17.15;15.38;;;12.00;99.90;;;;;;5066367;28;20425;-68
2023/05/11 05:49:27;;;;;;;18.70;16.80;;;12.00;99.90;;;;;;5069037;28;20433;-69
2023/05/11 05:51:54;;;;;;;18.40;16.50;;;12.10;99.90;;;;;;5067592;28;20524;-69
2023/05/11 05:54:21;;;;;;;18.20;16.30;;;12.20;99.90;;;;;;5054215;28;20800;-70
2023/05/11 05:56:49;;;;;;;16.73;14.98;;;12.20;99.90;;;;;;5063036;28;20409;-70
2023/05/11 05:59:17;;;;;;;17.40;15.70;;;12.30;99.90;;;;;;5068488;28;20437;-68
2023/05/11 06:01:46;;;;;;;18.25;16.40;;;12.40;99.90;;;;;;5061199;28;20429;-68
2023/05/11 06:04:14;;;;;;;17.90;16.10;;;12.40;99.90;;;;;;5062390;28;20423;-68
2023/05/11 06:06:41;;;;;;;20.02;17.48;;;12.40;99.90;;;;;;5059347;28;20583;-68
2023/05/11 06:09:08;;;;;;;21.30;17.40;;;12.50;99.90;;;;;;5053366;28;20429;-68
2023/05/11 06:11:34;;;;;;;18.30;16.50;;;12.60;99.90;;;;;;5058961;28;20511;-69
2023/05/11 06:14:03;;;;;;;18.80;16.90;;;12.60;99.90;;;;;;5046278;28;20919;-69
2023/05/11 06:16:30;;;;;;;17.25;15.48;;;12.70;99.90;;;;;;5061753;28;20921;-69
2023/05/11 06:18:57;;;;;;;18.08;16.17;;;12.60;99.90;;;;;;5045908;28;20433;-68
2023/05/11 06:21:25;;;;;;;18.40;16.50;;;12.70;99.90;;;;;;5054366;28;20780;-68
2023/05/11 06:23:52;;;;;;;17.60;16.00;;;12.70;99.90;;;;;;5056910;28;20433;-69
2023/05/11 06:26:20;;;;;;;18.50;16.52;;;12.80;99.90;;;;;;5051858;28;20421;-68
2023/05/11 06:28:46;;;;;;;17.37;15.67;;;12.90;99.90;;;;;;5056705;28;20491;-68
2023/05/11 06:31:14;;;;;;;17.90;16.00;;;13.00;99.90;;;;;;5058699;28;20701;-68
2023/05/11 06:33:41;;;;;;;17.52;15.82;;;13.10;99.90;;;;;;5050212;28;20464;-69
2023/05/11 06:36:08;;;;;;;18.63;16.70;;;13.20;99.90;;;;;;5043840;28;20436;-68
2023/05/11 06:38:36;;;;;;;17.13;15.52;;;13.30;99.90;;;;;;5042518;28;20726;-68
2023/05/11 06:41:03;;;;;;;16.27;14.57;;;13.40;99.90;;;;;;5060123;28;20413;-68
2023/05/11 06:43:30;;;;;;;17.02;15.23;;;13.50;99.90;;;;;;5049260;28;20940;-68
2023/05/11 06:45:57;;;;;;;19.17;16.58;;;13.60;99.90;;;;;;5048614;28;20436;-67
2023/05/11 06:48:24;;;;;;;17.40;15.70;;;13.70;99.90;;;;;;5049942;28;20424;-68
2023/05/11 06:50:54;;;;;;;17.67;15.90;;;13.70;99.90;;;;;;5047776;28;20457;-66
2023/05/11 06:53:24;;;;;;;18.05;16.35;;;13.70;99.90;;;;;;5060629;28;20425;-67
2023/05/11 06:55:54;;;;;;;18.13;16.23;;;13.60;99.90;;;;;;5064071;28;20413;-67
2023/05/11 06:58:21;;;;;;;17.55;15.95;;;13.70;99.90;;;;;;5057167;28;20432;-68
2023/05/11 07:00:49;;;;;;;18.10;16.30;;;13.70;99.90;;;;;;5058524;28;20443;-69
2023/05/11 07:03:16;;;;;;;18.00;16.25;;;13.80;99.90;;;;;;5064392;28;20439;-68
2023/05/11 07:05:43;;;;;;;17.48;15.60;;;13.90;99.90;;;;;;5064620;28;20517;-68
2023/05/11 07:08:10;;;;;;;16.42;14.73;;;14.00;99.90;;;;;;5049167;28;20425;-68
2023/05/11 07:10:36;;;;;;;16.95;15.20;;;14.00;99.90;;;;;;5049833;28;20437;-68
2023/05/11 07:13:05;;;;;;;15.73;14.23;;;14.10;99.90;;;;;;5052344;28;20810;-67
2023/05/11 07:15:31;;;;;;;14.85;13.45;;;14.20;99.90;;;;;;5052181;28;20423;-67
2023/05/11 07:18:00;;;;;;;15.38;13.68;;;14.10;99.90;;;;;;5049116;28;20440;-67
2023/05/11 07:20:26;;;;;;;16.05;14.45;;;14.20;99.90;;;;;;5050373;28;20442;-67
2023/05/11 07:22:56;;;;;;;14.75;13.35;;;14.20;99.90;;;;;;5052315;28;20459;-67
2023/05/11 07:25:23;;;;;;;16.35;14.75;;;14.20;99.90;;;;;;5046006;28;20471;-68
2023/05/11 07:27:50;;;;;;;15.80;14.40;;;14.30;99.90;;;;;;5065945;28;20447;-67
2023/05/11 07:30:18;;;;;;;15.23;13.63;;;14.40;99.90;;;;;;5071810;28;20413;-68
2023/05/11 07:32:45;;;;;;;14.27;12.90;;;14.50;99.90;;;;;;5071649;28;20431;-67
2023/05/11 07:35:12;;;;;;;14.65;13.13;;;14.60;99.80;;;;;;5067235;28;20421;-68
2023/05/11 07:37:39;;;;;;;14.30;13.00;;;14.60;99.90;;;;;;5046399;28;20421;-67
2023/05/11 07:40:07;;;;;;;14.63;13.40;;;14.60;99.90;;;;;;5053824;28;20768;-68
2023/05/11 07:42:34;;;;;;;14.23;12.82;;;14.60;99.20;;;;;;5054317;28;20429;-68
2023/05/11 07:45:01;;;;;;;14.68;13.27;;;14.70;99.20;;;;;;5053894;28;20429;-68
2023/05/11 07:47:29;;;;;;;14.73;13.32;;;14.70;99.40;;;;;;5046811;28;20428;-69
2023/05/11 07:49:56;;;;;;;14.70;13.20;;;14.70;98.50;;;;;;5053412;28;20440;-68
2023/05/11 07:52:22;;;;;;;14.70;13.30;;;14.70;98.30;;;;;;5042914;28;20426;-68
2023/05/11 07:54:49;;;;;;;14.38;12.98;;;14.80;98.40;;;;;;5044754;28;20427;-68
2023/05/11 07:57:16;;;;;;;14.20;12.80;;;14.90;97.80;;;;;;5052395;28;20444;-68
2023/05/11 07:59:43;;;;;;;13.85;12.48;;;15.00;97.50;;;;;;5045517;28;20448;-68
2023/05/11 08:02:10;;;;;;;13.05;11.88;;;15.10;97.20;;;;;;5047373;28;20436;-66
2023/05/11 08:04:38;;;;;;;13.10;12.00;;;15.10;96.90;;;;;;5050334;28;20427;-67
2023/05/11 08:07:04;;;;;;;13.77;12.37;;;15.30;97.70;;;;;;5039392;28;20439;-69
2023/05/11 08:09:31;;;;;;;13.35;12.05;;;15.30;97.20;;;;;;5056837;28;20520;-68
2023/05/11 08:12:00;;;;;;;13.30;12.20;;;15.40;96.80;;;;;;5056752;28;20423;-67
2023/05/11 08:14:27;;;;;;;14.30;12.80;;;15.50;95.50;;;;;;5067997;28;20413;-67
2023/05/11 08:16:54;;;;;;;13.87;12.67;;;15.50;94.80;;;;;;5050878;28;20440;-68
2023/05/11 08:19:20;;;;;;;13.77;12.57;;;15.30;95.30;;;;;;5052497;28;20523;-68
2023/05/11 08:21:49;;;;;;;13.27;12.18;;;15.30;95.10;;;;;;5053968;28;20425;-67
2023/05/11 08:24:16;;;;;;;14.05;12.85;;;15.30;95.50;;;;;;5055294;28;20423;-67
2023/05/11 08:26:48;;;;;;;13.18;11.98;;;15.40;95.80;;;;;;5050037;28;20437;-70
2023/05/11 08:29:15;;;;;;;12.35;11.25;;;15.50;94.30;;;;;;5052122;28;20892;-68
2023/05/11 08:31:41;;;;;;;13.00;12.00;;;15.60;94.10;;;;;;5044120;28;20433;-67
2023/05/11 08:34:09;;;;;;;13.17;12.07;;;15.70;93.30;;;;;;5048922;28;20788;-69
2023/05/11 08:36:36;;;;;;;12.98;11.93;;;15.80;93.40;;;;;;5058389;28;20772;-68
2023/05/11 08:39:05;;;;;;;13.43;12.13;;;15.80;92.90;;;;;;5056660;28;20414;-69
2023/05/11 08:41:31;;;;;;;13.70;12.45;;;15.70;93.20;;;;;;5057127;28;20465;-70
2023/05/11 08:44:00;;;;;;;14.40;12.55;;;15.70;92.70;;;;;;5071537;22;20451;-70
2023/05/11 08:46:29;;;;;;;13.77;12.57;;;15.60;92.80;;;;;;5050487;28;20416;-70
2023/05/11 08:48:57;;;;;;;14.20;12.90;;;15.60;93.70;;;;;;5036559;28;20468;-69
2023/05/11 08:51:25;;;;;;;13.68;12.57;;;15.60;93.90;;;;;;5049577;28;20441;-70
2023/05/11 08:53:52;;;;;;;12.88;11.77;;;15.70;92.90;;;;;;5042817;28;20423;-70
2023/05/11 08:56:22;;;;;;;13.05;11.95;;;15.80;92.70;;;;;;5034981;28;20429;-70
2023/05/11 08:58:50;;;;;;;11.18;10.27;;;15.90;93.10;;;;;;5034543;28;20806;-70
2023/05/11 09:01:19;;;;;;;12.55;11.55;;;16.00;91.50;;;;;;5026482;28;20433;-71
2023/05/11 09:03:47;;;;;;;12.30;11.15;;;16.10;91.60;;;;;;5045724;28;20436;-71
2023/05/11 09:06:16;;;;;;;11.90;11.00;;;16.20;90.90;;;;;;5041732;28;20437;-71
2023/05/11 09:08:44;;;;;;;12.05;11.05;;;16.40;90.90;;;;;;5047078;28;20751;-71
2023/05/11 09:11:11;;;;;;;11.70;10.70;;;16.60;89.10;;;;;;5057548;28;20435;-70
2023/05/11 09:13:39;;;;;;;10.90;9.90;;;16.70;88.60;;;;;;5047940;28;20413;-71
2023/05/11 09:16:06;;;;;;;10.32;9.52;;;16.80;87.90;;;;;;5031947;28;20431;-71
2023/05/11 09:18:32;;;;;;;10.82;10.00;;;16.90;85.10;;;;;;5039337;28;20443;-72
2023/05/11 09:21:01;;;;;;;10.30;9.40;;;17.00;86.90;;;;;;5041063;28;20431;-71
2023/05/11 09:23:27;;;;;;;10.20;9.40;;;17.00;87.40;;;;;;5048624;28;20528;-70
2023/05/11 09:25:55;;;;;;;10.00;9.10;;;17.10;86.60;;;;;;5041605;28;20422;-69
2023/05/11 09:28:22;;;;;;;9.13;8.32;;;17.10;84.00;;;;;;5035870;28;20942;-70
2023/05/11 09:30:50;;;;;;;10.35;9.55;;;17.10;82.70;;;;;;5029465;28;20960;-70
2023/05/11 09:33:23;;;;;;;10.30;9.50;;;17.10;83.70;;;;;;5041397;28;20429;-70
2023/05/11 09:35:50;;;;;;;10.10;9.30;;;17.00;83.50;;;;;;5043802;28;20485;-71
2023/05/11 09:38:19;;;;;;;10.83;9.83;;;16.80;83.60;;;;;;5039185;28;20855;-71
2023/05/11 09:40:51;;;;;;;10.38;9.52;;;16.70;86.30;;;;;;5043823;28;20522;-71
2023/05/11 09:43:20;;;;;;;11.07;10.07;;;16.70;87.10;;;;;;5049513;28;20441;-71
2023/05/11 09:45:48;;;;;;;11.43;10.53;;;16.70;85.90;;;;;;5028759;28;20864;-70
2023/05/11 09:48:27;;;;;;;10.57;9.57;;;16.60;85.10;;;;;;5033107;28;20911;-70
2023/05/11 09:51:02;;;;;;;9.68;8.88;;;16.60;86.90;;;;;;5036005;28;20470;-65
2023/05/11 09:53:41;;;;;;;10.25;9.45;;;16.60;89.00;;;;;;5041698;28;20454;-64
2023/05/11 09:56:09;;;;;;;9.68;8.88;;;16.70;88.80;;;;;;5042041;28;20427;-65
2023/05/11 09:58:49;;;;;;;9.45;8.75;;;16.80;87.10;;;;;;5048346;28;20502;-69
2023/05/11 10:01:17;;;;;;;10.10;9.20;;;16.80;87.60;;;;;;5039024;28;20429;-69
2023/05/11 10:03:52;;;;;;;10.75;9.60;;;16.80;85.90;;;;;;5042680;28;20442;-69
2023/05/11 10:06:19;;;;;;;9.40;8.70;;;16.80;87.60;;;;;;5032441;28;20433;-69
2023/05/11 10:08:46;;;;;;;10.30;9.50;;;16.80;87.40;;;;;;5047231;28;20437;-69
2023/05/11 10:11:14;;;;;;;9.67;8.77;;;16.80;89.90;;;;;;5030050;28;20438;-68
2023/05/11 10:13:44;;;;;;;10.05;9.15;;;16.80;87.80;;;;;;5036989;28;20452;-68
2023/05/11 10:16:14;;;;;;;9.90;9.10;;;16.90;90.30;;;;;;5030332;28;20439;-68
2023/05/11 10:18:42;;;;;;;10.40;9.50;;;17.00;91.30;;;;;;5039711;28;20440;-68
2023/05/11 10:21:11;;;;;;;9.70;8.80;;;17.00;90.60;;;;;;5045092;28;20512;-69
2023/05/11 10:23:38;;;;;;;9.30;8.50;;;17.10;89.60;;;;;;5036885;28;20440;-68
2023/05/11 10:26:05;;;;;;;8.90;8.10;;;17.10;89.80;;;;;;5032577;28;20441;-68
2023/05/11 10:28:33;;;;;;;9.52;8.63;;;17.10;89.10;;;;;;5027370;28;20462;-68
2023/05/11 10:31:00;;;;;;;8.80;7.90;;;17.20;87.00;;;;;;5035016;28;20440;-68
2023/05/11 10:33:27;;;;;;;9.05;8.15;;;17.10;83.90;;;;;;5042656;28;20444;-69
2023/05/11 10:35:55;;;;;;;9.63;8.73;;;16.90;83.80;;;;;;5045214;28;20433;-68
2023/05/11 10:38:24;;;;;;;9.45;8.65;;;16.70;85.50;;;;;;5039426;28;20534;-68
2023/05/11 10:40:54;;;;;;;8.80;8.00;;;16.70;87.70;;;;;;5032201;28;20429;-69
2023/05/11 10:43:51;;;;;;;10.25;8.10;;;16.80;86.70;;;;;;5036806;28;20931;-69
2023/05/11 10:46:34;;;;;;;8.80;8.00;;;16.80;85.50;;;;;;5033573;28;20432;-69
2023/05/11 10:49:21;;;;;;;7.68;7.07;;;16.80;85.00;;;;;;5046893;28;20423;-69
2023/05/11 10:52:13;;;;;;;7.73;7.10;;;16.80;83.10;;;;;;5044268;28;20429;-68
2023/05/11 10:54:55;;;;;;;7.70;7.00;;;16.90;82.50;;;;;;5031675;28;20469;-70
2023/05/11 10:57:40;;;;;;;8.32;7.53;;;17.00;82.20;;;;;;5039889;28;20429;-68
2023/05/11 11:00:53;;;;;;;8.70;7.90;;;17.10;80.10;;;;;;5042467;28;20445;-68
2023/05/11 11:03:20;;;;;;;9.50;7.82;;;17.10;81.70;;;;;;5044321;28;20425;-68
2023/05/11 11:05:47;;;;;;;8.55;7.75;;;17.20;83.30;;;;;;5037572;28;20430;-68
2023/05/11 11:08:14;;;;;;;9.07;8.27;;;17.40;83.80;;;;;;5036588;28;20455;-68
2023/05/11 11:10:44;;;;;;;9.27;8.40;;;17.60;85.30;;;;;;5052036;28;20417;-68
2023/05/11 11:13:13;;;;;;;8.95;8.15;;;17.90;83.10;;;;;;5044375;28;20436;-68
2023/05/11 11:16:08;;;;;;;9.40;8.50;;;18.00;82.30;;;;;;5034410;28;20917;-67
2023/05/11 11:18:34;;;;;;;11.00;10.00;;;18.20;76.60;;;;;;5036701;28;20419;-69
2023/05/11 11:21:03;;;;;;;11.23;10.13;;;18.20;77.00;;;;;;5036867;28;20452;-69
2023/05/11 11:23:47;;;;;;;11.70;10.50;;;18.00;77.90;;;;;;5040493;28;20424;-69
2023/05/11 11:26:17;;;;;;;11.67;10.57;;;18.00;83.20;;;;;;5041643;28;20524;-69
2023/05/11 11:29:10;;;;;;;11.13;9.98;;;18.20;80.60;;;;;;5045998;28;20401;-69
2023/05/11 11:31:37;;;;;;;12.48;11.27;;;18.30;79.10;;;;;;5039393;28;20921;-67
2023/05/11 11:34:35;;;;;;;11.50;10.20;;;18.20;78.40;;;;;;5048672;28;20428;-68
2023/05/11 11:37:03;;;;;;;12.43;11.23;;;18.10;80.30;;;;;;5034575;28;20434;-68
2023/05/11 11:39:58;;;;;;;14.52;12.23;;;18.10;79.90;;;;;;5025838;28;20761;-68
2023/05/11 11:42:37;;;;;;;13.27;11.88;;;18.10;81.20;;;;;;5036104;28;20475;-68
2023/05/11 11:45:27;;;;;;;12.90;11.60;;;18.00;78.50;;;;;;5034589;28;20493;-68
2023/05/11 11:48:19;;;;;;;12.65;11.35;;;18.10;80.20;;;;;;5030720;28;20506;-68
2023/05/11 11:50:47;;;;;;;12.07;10.88;;;18.30;78.20;;;;;;5033863;28;20900;-69
2023/05/11 11:53:47;;;;;;;12.88;11.48;;;18.50;75.50;;;;;;5046661;28;20429;-68
2023/05/11 11:56:44;;;;;;;12.98;11.68;;;18.60;74.50;;;;;;5044779;28;20438;-69
2023/05/11 11:59:16;;;;;;;12.20;11.00;;;18.60;74.30;;;;;;5045670;28;20429;-67
2023/05/11 12:01:45;;;;;;;13.48;12.07;;;18.70;73.60;;;;;;5041398;28;20447;-67
2023/05/11 12:04:44;;;;;;;12.50;11.40;;;18.80;73.60;;;;;;5035131;28;20535;-68
2023/05/11 12:07:14;;;;;;;12.40;11.20;;;19.10;75.40;;;;;;5047403;28;20437;-67
2023/05/11 12:09:41;;;;;;;12.57;11.37;;;19.30;71.40;;;;;;5043199;28;20424;-69
2023/05/11 12:12:09;;;;;;;12.73;10.67;;;19.30;73.00;;;;;;5042311;28;20485;-66
2023/05/11 12:14:39;;;;;;;13.45;12.15;;;19.30;72.80;;;;;;5033796;28;20734;-67
2023/05/11 12:17:14;;;;;;;13.70;12.43;;;19.40;75.50;;;;;;5046918;28;20472;-70
2023/05/11 12:19:43;;;;;;;14.10;11.83;;;19.40;74.10;;;;;;5046076;28;21130;-70
2023/05/11 12:22:12;;;;;;;13.02;11.73;;;19.40;76.20;;;;;;5042311;28;20433;-69
2023/05/11 12:24:40;;;;;;;14.23;12.57;;;19.20;74.50;;;;;;5048176;28;20433;-69
2023/05/11 12:27:07;;;;;;;11.82;10.73;;;19.10;73.50;;;;;;5043616;28;20488;-71
2023/05/11 12:29:33;;;;;;;12.50;11.30;;;18.90;76.10;;;;;;5040817;28;20935;-70
2023/05/11 12:32:01;;;;;;;12.02;10.93;;;18.80;74.50;;;;;;5050103;28;20435;-70
2023/05/11 12:34:28;;;;;;;12.45;11.15;;;18.70;72.80;;;;;;5030743;28;20493;-70
2023/05/11 12:36:55;;;;;;;12.52;11.20;;;18.70;72.90;;;;;;5037286;28;20437;-71
2023/05/11 12:39:23;;;;;;;12.95;11.55;;;18.80;75.30;;;;;;5043145;28;20432;-71
2023/05/11 12:41:52;;;;;;;13.03;11.73;;;19.00;73.50;;;;;;5043056;28;20495;-70
2023/05/11 12:44:20;;;;;;;13.13;11.85;;;19.10;71.00;;;;;;5040068;28;20435;-71